Time;durP1;ratioP1;P1;durP2;ratioP2;P2;SDS_P1;SDS_P2;PMS_P1;PMS_P2;Temp;Humidity;BMP_temperature;BMP_pressure;BME280_temperature;BME280_humidity;BME280_pressure;Samples;Min_cycle;Max_cycle;Signal;HPM_P1;HPM_P2
2021/12/19 00:00:12;;;;;;;309.13;78.87;;;;;;;;;;4890338;28;20507;-78
2021/12/19 00:02:48;;;;;;;280.97;77.03;;;;;;;;;;4872379;28;20700;-79
2021/12/19 00:10:49;;;;;;;249.43;78.57;;;;;;;;;;4866141;28;20567;-79
2021/12/19 00:13:16;;;;;;;247.30;81.93;;;;;;;;;;4878471;28;20529;-79
2021/12/19 00:15:43;;;;;;;165.33;66.57;;;;;;;;;;4830695;28;20425;-79
2021/12/19 00:18:12;;;;;;;144.30;61.23;;;;;;;;;;4818815;28;21414;-79
2021/12/19 00:20:48;;;;;;;153.53;63.13;;;;;;;;;;4820231;28;20649;-79
2021/12/19 00:23:19;;;;;;;222.10;72.40;;;;;;;;;;4864577;28;20886;-79
2021/12/19 00:25:47;;;;;;;147.70;60.70;;;;;;;;;;4795174;28;20998;-79
2021/12/19 00:28:14;;;;;;;251.67;76.37;;;;;;;;;;4845756;28;20989;-79
2021/12/19 00:30:42;;;;;;;173.77;64.97;;;;;;;;;;4876095;28;20445;-79
2021/12/19 00:33:12;;;;;;;130.87;57.23;;;;;;;;;;4880923;28;20864;-79
2021/12/19 00:35:41;;;;;;;181.37;65.13;;;;;;;;;;4812865;28;20648;-77
2021/12/19 00:38:08;;;;;;;112.97;54.60;;;;;;;;;;4852102;28;21104;-77
2021/12/19 00:40:37;;;;;;;164.83;63.77;;;;;;;;;;4777163;28;21461;-77
2021/12/19 00:43:09;;;;;;;197.57;67.87;;;;;;;;;;4822355;28;20437;-77
2021/12/19 00:45:37;;;;;;;168.87;64.33;;;;;;;;;;4793576;28;21024;-76
2021/12/19 00:48:08;;;;;;;129.07;55.03;;;;;;;;;;4826190;28;20435;-78
2021/12/19 00:50:38;;;;;;;149.87;58.43;;;;;;;;;;4856517;28;20448;-78
2021/12/19 00:53:05;;;;;;;115.97;54.10;;;;;;;;;;4890987;28;20407;-77
2021/12/19 00:55:33;;;;;;;111.43;52.10;;;;;;;;;;4806195;28;20690;-77
2021/12/19 00:58:02;;;;;;;127.73;51.47;;;;;;;;;;4820115;28;20506;-78
2021/12/19 01:00:33;;;;;;;123.37;52.60;;;;;;;;;;4817713;28;20510;-78
2021/12/19 01:03:01;;;;;;;218.20;62.83;;;;;;;;;;4864365;28;20439;-77
2021/12/19 01:05:35;;;;;;;157.37;62.23;;;;;;;;;;4799749;28;21364;-77
2021/12/19 01:08:12;;;;;;;164.18;57.42;;;;;;;;;;4765445;28;21157;-77
2021/12/19 01:10:44;;;;;;;169.77;59.63;;;;;;;;;;4740847;28;20606;-76
2021/12/19 01:13:11;;;;;;;169.30;59.30;;;;;;;;;;4808449;28;20796;-77
2021/12/19 01:15:38;;;;;;;104.47;51.37;;;;;;;;;;4864262;28;20174;-78
2021/12/19 01:18:17;;;;;;;91.50;47.30;;;;;;;;;;4865591;28;20641;-78
2021/12/19 01:20:44;;;;;;;113.50;55.13;;;;;;;;;;4834594;28;20523;-77
2021/12/19 01:23:18;;;;;;;115.37;55.37;;;;;;;;;;4910106;28;21474;-78
2021/12/19 01:26:02;;;;;;;109.00;51.13;;;;;;;;;;4710516;28;21540;-77
2021/12/19 01:29:04;;;;;;;163.03;61.23;;;;;;;;;;4714867;28;20909;-78
2021/12/19 01:31:50;;;;;;;122.78;57.75;;;;;;;;;;4735982;28;20774;-77
2021/12/19 01:35:01;;;;;;;318.47;76.07;;;;;;;;;;4763389;28;20455;-77
2021/12/19 01:37:44;;;;;;;323.98;74.30;;;;;;;;;;4800191;28;20783;-78
2021/12/19 01:40:24;;;;;;;392.60;83.93;;;;;;;;;;4706101;28;20224;-77
2021/12/19 01:49:16;;;;;;;149.03;63.63;;;;;;;;;;4744403;28;21264;-77
2021/12/19 01:52:02;;;;;;;163.17;67.73;;;;;;;;;;4729887;28;20773;-77
2021/12/19 01:54:39;;;;;;;184.30;70.57;;;;;;;;;;4724381;28;20909;-78
2021/12/19 02:00:07;;;;;;;401.80;87.63;;;;;;;;;;4801923;28;20797;-77
2021/12/19 02:02:34;;;;;;;149.20;65.50;;;;;;;;;;4857110;28;20417;-77
2021/12/19 02:05:00;;;;;;;161.97;68.70;;;;;;;;;;4907256;28;20441;-77
2021/12/19 02:07:28;;;;;;;236.40;79.67;;;;;;;;;;4891090;28;20795;-77
2021/12/19 02:09:55;;;;;;;152.97;64.13;;;;;;;;;;4908835;28;20566;-78
2021/12/19 02:12:21;;;;;;;179.60;64.87;;;;;;;;;;4924600;28;20424;-78
2021/12/19 02:14:49;;;;;;;157.20;66.30;;;;;;;;;;4914984;28;20417;-77
2021/12/19 02:17:19;;;;;;;163.73;64.47;;;;;;;;;;4900573;28;20502;-77
2021/12/19 02:19:46;;;;;;;185.65;64.95;;;;;;;;;;4877030;28;20424;-77
2021/12/19 02:22:14;;;;;;;497.67;94.03;;;;;;;;;;4932291;28;20292;-77
2021/12/19 02:24:40;;;;;;;285.80;71.80;;;;;;;;;;4931507;28;20636;-77
2021/12/19 02:27:06;;;;;;;193.70;61.57;;;;;;;;;;4918839;28;20760;-79
2021/12/19 02:29:32;;;;;;;252.37;63.50;;;;;;;;;;4939809;28;21515;-78
2021/12/19 02:32:01;;;;;;;102.37;45.50;;;;;;;;;;4901877;28;20425;-79
2021/12/19 02:34:31;;;;;;;118.73;51.43;;;;;;;;;;4908797;28;20439;-78
2021/12/19 02:37:08;;;;;;;90.40;48.23;;;;;;;;;;4921240;28;20494;-78
2021/12/19 02:50:09;;;;;;;111.90;49.87;;;;;;;;;;4915162;28;21090;-77
2021/12/19 02:52:36;;;;;;;80.97;44.93;;;;;;;;;;4918261;28;20431;-77
2021/12/19 02:55:04;;;;;;;177.68;55.58;;;;;;;;;;4954682;28;20432;-77
2021/12/19 02:57:31;;;;;;;86.37;46.83;;;;;;;;;;4911613;28;20174;-78
2021/12/19 02:59:57;;;;;;;115.07;49.77;;;;;;;;;;4926863;28;21240;-78
2021/12/19 03:02:24;;;;;;;127.35;51.17;;;;;;;;;;4890066;28;22300;-77
2021/12/19 03:04:53;;;;;;;140.07;52.37;;;;;;;;;;4959734;28;21535;-77
2021/12/19 03:07:19;;;;;;;81.60;43.17;;;;;;;;;;4906158;28;20870;-78
2021/12/19 03:17:59;;;;;;;84.80;46.17;;;;;;;;;;4899596;28;20408;-77
2021/12/19 03:20:27;;;;;;;92.47;48.00;;;;;;;;;;4839568;28;20696;-78
2021/12/19 03:22:58;;;;;;;78.73;44.30;;;;;;;;;;4896524;28;20420;-78
2021/12/19 03:25:25;;;;;;;124.87;50.33;;;;;;;;;;4880933;28;20421;-78
2021/12/19 03:27:51;;;;;;;101.97;43.67;;;;;;;;;;4933032;28;21026;-77
2021/12/19 03:30:18;;;;;;;132.15;51.85;;;;;;;;;;4900154;28;20193;-77
2021/12/19 03:32:45;;;;;;;147.87;54.53;;;;;;;;;;4876063;28;20557;-77
2021/12/19 03:35:12;;;;;;;71.25;37.42;;;;;;;;;;4934869;28;20435;-77
2021/12/19 03:37:40;;;;;;;86.93;44.97;;;;;;;;;;4897542;28;20247;-77
2021/12/19 03:40:12;;;;;;;62.47;36.20;;;;;;;;;;4794332;28;20562;-78
2021/12/19 03:42:42;;;;;;;58.28;34.47;;;;;;;;;;4817816;28;20548;-78
2021/12/19 03:45:12;;;;;;;65.82;37.47;;;;;;;;;;4823187;28;20286;-79
2021/12/19 03:47:39;;;;;;;72.77;40.50;;;;;;;;;;4842874;28;20189;-78
2021/12/19 03:50:09;;;;;;;73.60;41.20;;;;;;;;;;4809299;28;20890;-78
2021/12/19 03:52:37;;;;;;;68.28;38.30;;;;;;;;;;4851181;28;20420;-77
2021/12/19 03:55:04;;;;;;;70.97;38.55;;;;;;;;;;4883487;28;20504;-78
2021/12/19 03:57:31;;;;;;;65.70;35.30;;;;;;;;;;4846080;28;20167;-78
2021/12/19 03:59:57;;;;;;;120.97;46.23;;;;;;;;;;4862743;28;20502;-78
2021/12/19 04:02:26;;;;;;;68.60;38.03;;;;;;;;;;4913075;28;20939;-78
2021/12/19 04:05:00;;;;;;;124.23;47.67;;;;;;;;;;4884415;28;20178;-78
2021/12/19 04:07:29;;;;;;;73.87;39.50;;;;;;;;;;4871889;28;20440;-78
2021/12/19 04:09:58;;;;;;;115.40;46.13;;;;;;;;;;4852253;28;20907;-78
2021/12/19 04:12:28;;;;;;;81.00;41.00;;;;;;;;;;4899236;28;20461;-78
2021/12/19 04:15:01;;;;;;;90.67;45.07;;;;;;;;;;4900109;28;20505;-78
2021/12/19 04:17:28;;;;;;;94.03;46.80;;;;;;;;;;4901492;28;21267;-78
2021/12/19 04:19:59;;;;;;;95.43;45.93;;;;;;;;;;4878983;28;20181;-78
2021/12/19 04:22:28;;;;;;;98.70;46.40;;;;;;;;;;4838461;28;20822;-78
2021/12/19 04:24:55;;;;;;;80.90;41.70;;;;;;;;;;4869891;28;21179;-78
2021/12/19 04:27:23;;;;;;;84.17;42.00;;;;;;;;;;4882571;28;20975;-78
2021/12/19 04:29:52;;;;;;;100.73;46.40;;;;;;;;;;4922606;28;20802;-78
2021/12/19 04:32:23;;;;;;;78.73;41.37;;;;;;;;;;4884366;28;20515;-78
2021/12/19 04:34:51;;;;;;;77.60;40.37;;;;;;;;;;4929975;28;20449;-77
2021/12/19 04:37:59;;;;;;;81.53;39.50;;;;;;;;;;4927002;28;20448;-78
2021/12/19 04:40:21;;;;;;;74.63;39.17;;;;;;;;;;4914236;28;20531;-78
2021/12/19 04:51:23;;;;;;;80.32;40.50;;;;;;;;;;4906216;28;21071;-77
2021/12/19 04:54:19;;;;;;;93.43;45.22;;;;;;;;;;4897511;28;20173;-78
2021/12/19 05:15:37;;;;;;;107.18;50.55;;;;;;;;;;4932682;28;20252;-78
2021/12/19 05:18:07;;;;;;;124.80;55.35;;;;;;;;;;4900559;28;20178;-78
2021/12/19 05:20:36;;;;;;;116.93;51.85;;;;;;;;;;4861339;28;20361;-77
2021/12/19 05:23:21;;;;;;;126.82;55.95;;;;;;;;;;4872492;28;20210;-78
2021/12/19 05:25:48;;;;;;;112.20;53.58;;;;;;;;;;4845642;28;20304;-78
2021/12/19 05:28:15;;;;;;;134.63;58.15;;;;;;;;;;4923764;28;20193;-78
2021/12/19 05:30:43;;;;;;;112.40;51.35;;;;;;;;;;4907169;28;20575;-78
2021/12/19 05:33:09;;;;;;;145.80;61.28;;;;;;;;;;4906856;28;20179;-78
2021/12/19 05:36:00;;;;;;;133.18;56.42;;;;;;;;;;4924666;28;20751;-78
2021/12/19 05:46:56;;;;;;;152.10;61.35;;;;;;;;;;4814613;28;20547;-77
2021/12/19 05:49:23;;;;;;;137.25;58.40;;;;;;;;;;4887664;28;20272;-78
2021/12/19 05:51:53;;;;;;;121.88;52.53;;;;;;;;;;4896504;28;20166;-77
2021/12/19 05:54:19;;;;;;;106.68;51.15;;;;;;;;;;4846482;28;20188;-77
2021/12/19 05:56:46;;;;;;;99.43;46.92;;;;;;;;;;4927595;28;20943;-77
2021/12/19 05:59:13;;;;;;;91.90;45.63;;;;;;;;;;4955051;28;20169;-76
2021/12/19 06:01:46;;;;;;;94.78;47.50;;;;;;;;;;4900927;28;20170;-77
2021/12/19 06:04:13;;;;;;;88.45;46.92;;;;;;;;;;4771457;28;20174;-77
2021/12/19 06:06:40;;;;;;;99.15;48.42;;;;;;;;;;4828879;28;21070;-77
2021/12/19 06:09:06;;;;;;;97.95;48.90;;;;;;;;;;4922115;28;20517;-77
2021/12/19 06:11:33;;;;;;;86.00;45.28;;;;;;;;;;4932459;28;20585;-78
2021/12/19 06:14:00;;;;;;;88.60;47.50;;;;;;;;;;4844429;28;20921;-78
2021/12/19 06:16:26;;;;;;;86.70;46.50;;;;;;;;;;4882169;28;20236;-78
2021/12/19 06:18:52;;;;;;;94.10;47.50;;;;;;;;;;4933056;28;20605;-77
2021/12/19 06:21:19;;;;;;;84.90;45.55;;;;;;;;;;4896612;28;20186;-78
2021/12/19 06:23:46;;;;;;;87.53;46.63;;;;;;;;;;4883123;28;20378;-77
2021/12/19 06:26:14;;;;;;;89.65;48.00;;;;;;;;;;4899783;28;20239;-78
2021/12/19 06:28:41;;;;;;;95.30;49.47;;;;;;;;;;4912036;28;20173;-77
2021/12/19 06:31:09;;;;;;;94.13;48.65;;;;;;;;;;4946155;28;20206;-79
2021/12/19 06:33:37;;;;;;;87.13;45.77;;;;;;;;;;4887356;28;20462;-78
2021/12/19 06:36:11;;;;;;;91.47;48.50;;;;;;;;;;4878091;28;20490;-79
2021/12/19 06:38:37;;;;;;;94.63;47.80;;;;;;;;;;4862901;28;20624;-79
2021/12/19 06:41:04;;;;;;;86.32;44.67;;;;;;;;;;4937931;28;20504;-80
2021/12/19 06:43:32;;;;;;;83.80;44.17;;;;;;;;;;4907659;28;20441;-79
2021/12/19 06:45:58;;;;;;;93.63;49.00;;;;;;;;;;4937248;28;20174;-79
2021/12/19 06:48:25;;;;;;;77.47;42.25;;;;;;;;;;4984444;28;20185;-77
2021/12/19 06:50:52;;;;;;;89.45;47.15;;;;;;;;;;4968765;28;20259;-77
2021/12/19 06:53:18;;;;;;;80.13;42.88;;;;;;;;;;4962355;28;20670;-77
2021/12/19 06:55:45;;;;;;;86.43;44.95;;;;;;;;;;4979869;28;21252;-78
2021/12/19 06:58:11;;;;;;;86.53;46.13;;;;;;;;;;4978977;28;20268;-78
2021/12/19 07:00:38;;;;;;;89.65;45.88;;;;;;;;;;4983542;28;20189;-78
2021/12/19 07:03:04;;;;;;;87.15;44.28;;;;;;;;;;4984871;28;20184;-79
2021/12/19 07:05:31;;;;;;;88.32;45.38;;;;;;;;;;4963834;28;20936;-78
2021/12/19 07:07:57;;;;;;;80.40;41.58;;;;;;;;;;4985152;28;20177;-77
2021/12/19 07:10:24;;;;;;;78.70;43.42;;;;;;;;;;4969381;28;20517;-78
2021/12/19 07:12:50;;;;;;;87.60;45.55;;;;;;;;;;4995419;28;20178;-78
2021/12/19 07:15:18;;;;;;;82.32;44.72;;;;;;;;;;4968176;28;20212;-78
2021/12/19 07:17:45;;;;;;;75.60;41.38;;;;;;;;;;4977475;28;21162;-77
2021/12/19 07:20:12;;;;;;;88.35;45.22;;;;;;;;;;4982056;28;20240;-78
2021/12/19 07:22:39;;;;;;;91.53;45.85;;;;;;;;;;4984712;28;20987;-78
2021/12/19 07:25:06;;;;;;;76.63;42.67;;;;;;;;;;4972651;28;20367;-78
2021/12/19 07:27:32;;;;;;;74.88;42.45;;;;;;;;;;4978660;28;20552;-78
2021/12/19 07:29:59;;;;;;;83.50;44.45;;;;;;;;;;4965249;28;20198;-80
2021/12/19 07:32:26;;;;;;;83.20;45.40;;;;;;;;;;4982700;28;20177;-79
2021/12/19 07:34:52;;;;;;;79.70;43.73;;;;;;;;;;4986034;28;20172;-79
2021/12/19 07:37:20;;;;;;;77.20;41.95;;;;;;;;;;4984142;28;20414;-79
2021/12/19 07:40:03;;;;;;;86.78;44.05;;;;;;;;;;4967702;28;20661;-79
2021/12/19 07:42:30;;;;;;;76.07;42.10;;;;;;;;;;4978577;28;20849;-79
2021/12/19 07:44:57;;;;;;;76.50;42.83;;;;;;;;;;4969949;28;20421;-79
2021/12/19 07:47:23;;;;;;;63.78;37.50;;;;;;;;;;4969654;28;20434;-78
2021/12/19 07:49:49;;;;;;;66.30;37.53;;;;;;;;;;4968380;28;21552;-79
2021/12/19 07:52:16;;;;;;;70.63;39.23;;;;;;;;;;4981054;28;20424;-77
2021/12/19 07:54:42;;;;;;;66.53;39.60;;;;;;;;;;4966515;28;20420;-78
2021/12/19 07:57:09;;;;;;;67.80;39.80;;;;;;;;;;4994441;28;20428;-78
2021/12/19 07:59:35;;;;;;;61.93;37.13;;;;;;;;;;4955674;28;20875;-78
2021/12/19 08:05:13;;;;;;;62.93;36.97;;;;;;;;;;4968985;28;21489;-78
2021/12/19 08:07:41;;;;;;;56.80;34.30;;;;;;;;;;4953567;28;20456;-78
2021/12/19 08:11:39;;;;;;;54.53;33.40;;;;;;;;;;4957150;28;20545;-78
2021/12/19 08:13:02;;;;;;;58.10;34.50;;;;;;;;;;4980300;28;20858;-78
2021/12/19 08:15:29;;;;;;;54.60;33.57;;;;;;;;;;4987099;28;20421;-78
2021/12/19 08:17:55;;;;;;;52.03;31.70;;;;;;;;;;4986565;28;20464;-79
2021/12/19 08:20:22;;;;;;;63.43;36.87;;;;;;;;;;4977827;28;20924;-78
2021/12/19 08:22:50;;;;;;;60.53;35.80;;;;;;;;;;4963453;28;20440;-78
2021/12/19 08:25:17;;;;;;;56.80;33.97;;;;;;;;;;4986071;28;20455;-78
2021/12/19 08:27:46;;;;;;;61.30;36.53;;;;;;;;;;4972446;28;20483;-78
2021/12/19 08:30:15;;;;;;;51.60;31.63;;;;;;;;;;5001576;28;20453;-78
2021/12/19 08:32:44;;;;;;;50.73;30.90;;;;;;;;;;4973513;28;20424;-78
2021/12/19 08:35:12;;;;;;;53.07;30.83;;;;;;;;;;4985493;28;20428;-79
2021/12/19 08:37:38;;;;;;;47.13;28.87;;;;;;;;;;4985197;28;20505;-77
2021/12/19 08:40:06;;;;;;;54.20;32.53;;;;;;;;;;4983229;28;20498;-78
2021/12/19 08:42:34;;;;;;;52.30;32.90;;;;;;;;;;4984973;28;20412;-79
2021/12/19 08:45:01;;;;;;;54.97;33.43;;;;;;;;;;4999117;28;21031;-78
2021/12/19 08:47:28;;;;;;;47.73;31.40;;;;;;;;;;4972694;28;20408;-78
2021/12/19 08:49:54;;;;;;;49.83;32.53;;;;;;;;;;4973294;28;20452;-79
2021/12/19 08:52:21;;;;;;;48.17;29.33;;;;;;;;;;4967472;28;21295;-78
2021/12/19 08:54:47;;;;;;;49.00;30.47;;;;;;;;;;4971627;28;20413;-79
2021/12/19 08:57:14;;;;;;;51.27;31.20;;;;;;;;;;4987312;28;20779;-79
2021/12/19 08:59:43;;;;;;;50.77;29.63;;;;;;;;;;4989542;28;20513;-79
2021/12/19 09:02:11;;;;;;;48.80;28.83;;;;;;;;;;4983275;28;20523;-78
2021/12/19 09:04:37;;;;;;;52.23;31.90;;;;;;;;;;4994083;28;20959;-79
2021/12/19 09:07:04;;;;;;;48.07;30.97;;;;;;;;;;4987513;28;21441;-79
2021/12/19 09:09:30;;;;;;;48.80;31.03;;;;;;;;;;4973960;28;20427;-79
2021/12/19 09:11:56;;;;;;;51.30;31.67;;;;;;;;;;4984512;28;20417;-78
2021/12/19 09:14:23;;;;;;;51.70;31.50;;;;;;;;;;4983724;28;20479;-79
2021/12/19 09:16:49;;;;;;;51.80;32.53;;;;;;;;;;4984228;28;20464;-79
2021/12/19 09:19:16;;;;;;;52.77;33.67;;;;;;;;;;4968903;28;20862;-79
2021/12/19 09:21:43;;;;;;;53.67;32.90;;;;;;;;;;4985152;28;20933;-78
2021/12/19 09:24:10;;;;;;;53.40;33.83;;;;;;;;;;4996621;28;20429;-79
2021/12/19 09:26:39;;;;;;;57.43;32.90;;;;;;;;;;4996535;28;21430;-79
2021/12/19 09:29:05;;;;;;;53.50;32.50;;;;;;;;;;5001856;28;20459;-79
2021/12/19 09:31:32;;;;;;;56.83;36.03;;;;;;;;;;4964276;28;20440;-78
2021/12/19 09:33:58;;;;;;;49.40;31.40;;;;;;;;;;4960357;28;20435;-79
2021/12/19 09:36:25;;;;;;;55.20;35.03;;;;;;;;;;4981643;28;20420;-79
2021/12/19 09:38:52;;;;;;;58.17;34.00;;;;;;;;;;4971497;28;20964;-79
2021/12/19 09:41:28;;;;;;;55.37;34.63;;;;;;;;;;4962874;28;20435;-79
2021/12/19 09:43:58;;;;;;;51.07;33.40;;;;;;;;;;4980650;28;20482;-79
2021/12/19 09:46:29;;;;;;;52.47;32.67;;;;;;;;;;4982369;28;20479;-79
2021/12/19 09:48:56;;;;;;;50.80;32.43;;;;;;;;;;4972532;28;20432;-79
2021/12/19 09:51:22;;;;;;;52.60;32.93;;;;;;;;;;4984847;28;20919;-79
2021/12/19 09:53:49;;;;;;;53.30;34.27;;;;;;;;;;4982031;28;20519;-79
2021/12/19 09:56:16;;;;;;;47.03;30.43;;;;;;;;;;4987810;28;20444;-80
2021/12/19 09:58:45;;;;;;;51.43;34.53;;;;;;;;;;4987355;28;20425;-80
2021/12/19 10:01:12;;;;;;;49.83;31.20;;;;;;;;;;4986345;28;20467;-80
2021/12/19 10:03:39;;;;;;;50.07;32.97;;;;;;;;;;4982086;28;20483;-80
2021/12/19 10:06:17;;;;;;;50.20;33.37;;;;;;;;;;4967995;28;21039;-80
2021/12/19 10:09:06;;;;;;;;;;;;;;;;;;;;;
2021/12/19 10:15:18;;;;;;;;;;;;;;;;;;;;;
2021/12/19 10:18:15;;;;;;;49.90;31.33;;;;;;;;;;4955801;28;20420;-81
2021/12/19 10:21:08;;;;;;;;;;;;;;;;;;;;;
2021/12/19 10:24:02;;;;;;;;;;;;;;;;;;;;;
2021/12/19 10:26:43;;;;;;;44.43;29.27;;;;;;;;;;4985628;28;20646;-82
2021/12/19 10:29:10;;;;;;;45.07;28.20;;;;;;;;;;4974079;28;21432;-82
2021/12/19 10:31:47;;;;;;;;;;;;;;;;;;;;;
2021/12/19 10:34:18;;;;;;;43.20;28.27;;;;;;;;;;4986983;28;20428;-82
2021/12/19 10:36:45;;;;;;;52.67;30.77;;;;;;;;;;5002133;28;20420;-81
2021/12/19 10:39:17;;;;;;;49.13;30.67;;;;;;;;;;4985929;28;20409;-82
2021/12/19 10:41:57;;;;;;;44.40;29.67;;;;;;;;;;4971593;28;20420;-81
2021/12/19 10:47:27;;;;;;;52.37;33.70;;;;;;;;;;4989639;28;20495;-82
2021/12/19 10:50:15;;;;;;;54.27;33.90;;;;;;;;;;4988761;28;20448;-82
2021/12/19 10:53:03;;;;;;;54.73;35.53;;;;;;;;;;4985150;28;20431;-81
2021/12/19 10:55:34;;;;;;;57.93;36.23;;;;;;;;;;4968778;28;20433;-81
2021/12/19 10:58:23;;;;;;;58.70;38.03;;;;;;;;;;4989167;28;20429;-82
2021/12/19 11:03:55;;;;;;;63.10;38.40;;;;;;;;;;4982413;28;20503;-81
2021/12/19 11:06:30;;;;;;;66.93;40.83;;;;;;;;;;4986842;28;20424;-81
2021/12/19 11:09:01;;;;;;;67.17;42.67;;;;;;;;;;5001134;28;20434;-82
2021/12/19 11:11:51;;;;;;;65.57;41.00;;;;;;;;;;4987444;28;21024;-81
2021/12/19 11:14:42;;;;;;;68.00;43.77;;;;;;;;;;4985265;28;20547;-81
2021/12/19 11:17:23;;;;;;;66.20;43.93;;;;;;;;;;4970077;28;20758;-81
2021/12/19 11:20:16;;;;;;;73.23;45.43;;;;;;;;;;4989048;28;20547;-82
2021/12/19 11:25:43;;;;;;;73.03;44.23;;;;;;;;;;4979408;28;20427;-82
2021/12/19 11:28:14;;;;;;;73.90;47.23;;;;;;;;;;5003158;28;20447;-82
2021/12/19 11:30:41;;;;;;;74.43;46.53;;;;;;;;;;4984474;28;20467;-81
2021/12/19 11:33:25;;;;;;;74.47;45.53;;;;;;;;;;4987652;28;20419;-81
2021/12/19 11:35:54;;;;;;;74.63;46.97;;;;;;;;;;4982286;28;20636;-81
2021/12/19 11:38:30;;;;;;;74.53;47.27;;;;;;;;;;4986810;28;20456;-81
2021/12/19 11:40:59;;;;;;;76.40;48.53;;;;;;;;;;4980683;28;21429;-81
2021/12/19 11:43:48;;;;;;;76.63;48.53;;;;;;;;;;4984205;28;20431;-81
2021/12/19 11:46:22;;;;;;;80.70;50.07;;;;;;;;;;4984137;28;20428;-80
2021/12/19 11:49:09;;;;;;;81.07;50.33;;;;;;;;;;4965956;28;20715;-80
2021/12/19 11:51:41;;;;;;;80.63;51.50;;;;;;;;;;4996861;28;20480;-80
2021/12/19 11:54:18;;;;;;;81.33;51.77;;;;;;;;;;4983156;28;20920;-80
2021/12/19 11:57:11;;;;;;;82.13;50.07;;;;;;;;;;4966473;28;20758;-80
2021/12/19 11:59:43;;;;;;;82.53;53.30;;;;;;;;;;4985388;28;20416;-81
2021/12/19 12:02:27;;;;;;;76.07;50.50;;;;;;;;;;4985400;28;20431;-81
2021/12/19 12:05:12;;;;;;;76.43;49.30;;;;;;;;;;4984489;28;20412;-81
2021/12/19 12:08:06;;;;;;;75.83;49.70;;;;;;;;;;4981652;28;20440;-81
2021/12/19 12:10:52;;;;;;;80.77;51.07;;;;;;;;;;4954192;28;20526;-81
2021/12/19 12:13:23;;;;;;;78.07;51.60;;;;;;;;;;4983188;28;20539;-81
2021/12/19 12:19:40;;;;;;;;;;;;;;;;;;;;;
2021/12/19 12:22:26;;;;;;;81.40;50.87;;;;;;;;;;4982839;28;20426;-81
2021/12/19 12:25:16;;;;;;;80.97;51.33;;;;;;;;;;4982251;28;20424;-82
2021/12/19 12:28:15;;;;;;;;;;;;;;;;;;;;;
2021/12/19 12:30:42;;;;;;;76.13;49.33;;;;;;;;;;4984380;28;20452;-81
2021/12/19 12:33:32;;;;;;;;;;;;;;;;;;;;;
2021/12/19 12:36:35;;;;;;;74.03;48.47;;;;;;;;;;4982208;28;20437;-81
2021/12/19 12:39:17;;;;;;;77.27;49.03;;;;;;;;;;4963641;28;20428;-81
2021/12/19 12:42:09;;;;;;;80.13;51.83;;;;;;;;;;4967901;28;20432;-81
2021/12/19 12:45:05;;;;;;;;;;;;;;;;;;;;;
2021/12/19 12:48:34;;;;;;;84.33;54.27;;;;;;;;;;4986423;28;20417;-81
2021/12/19 12:50:34;;;;;;;89.90;55.57;;;;;;;;;;4965759;28;20453;-81
2021/12/19 12:53:10;;;;;;;79.77;51.77;;;;;;;;;;4977820;28;20716;-82
2021/12/19 12:56:11;;;;;;;82.97;53.93;;;;;;;;;;4991370;28;20426;-82
2021/12/19 12:59:07;;;;;;;95.97;60.33;;;;;;;;;;4978995;28;20420;-82
2021/12/19 13:02:19;;;;;;;81.80;51.87;;;;;;;;;;4984534;28;20750;-81
2021/12/19 13:05:00;;;;;;;82.30;52.00;;;;;;;;;;4986381;28;20511;-82
2021/12/19 13:10:24;;;;;;;85.47;54.27;;;;;;;;;;4974219;28;20456;-81
2021/12/19 13:29:58;;;;;;;75.37;48.13;;;;;;;;;;5671673;23;20587;-36
2021/12/19 13:32:26;;;;;;;70.17;46.10;;;;;;;;;;4951485;28;20415;-36
2021/12/19 13:34:53;;;;;;;69.57;45.60;;;;;;;;;;4926346;28;20448;-35
2021/12/19 13:37:20;;;;;;;72.97;46.53;;;;;;;;;;4939534;28;20677;-35
2021/12/19 13:39:57;;;;;;;71.17;45.43;;;;;;;;;;4936814;28;20944;-35
2021/12/19 13:42:36;;;;;;;65.13;41.97;;;;;;;;;;4945005;28;20426;-35
2021/12/19 13:45:03;;;;;;;73.03;46.07;;;;;;;;;;4950486;28;21054;-36
2021/12/19 13:47:29;;;;;;;72.43;46.83;;;;;;;;;;4949214;28;20430;-36
2021/12/19 13:49:56;;;;;;;69.83;46.33;;;;;;;;;;4950677;28;20450;-36
2021/12/19 13:52:22;;;;;;;74.57;48.17;;;;;;;;;;4931246;28;21089;-36
2021/12/19 13:54:49;;;;;;;68.13;44.63;;;;;;;;;;4935909;28;20469;-36
2021/12/19 13:57:19;;;;;;;69.57;44.73;;;;;;;;;;4940386;28;20422;-35
2021/12/19 13:59:45;;;;;;;71.43;43.97;;;;;;;;;;4963463;28;20419;-36
2021/12/19 14:02:12;;;;;;;69.00;43.77;;;;;;;;;;4963709;28;20433;-36
2021/12/19 14:04:38;;;;;;;68.37;44.33;;;;;;;;;;4944891;28;20429;-35
2021/12/19 14:07:10;;;;;;;67.33;44.03;;;;;;;;;;4963436;28;20452;-35
2021/12/19 14:09:44;;;;;;;68.60;45.30;;;;;;;;;;4940731;28;20429;-36
2021/12/19 14:12:52;;;;;;;62.07;41.77;;;;;;;;;;4942613;28;20438;-36
2021/12/19 14:15:12;;;;;;;67.47;42.00;;;;;;;;;;4958501;28;20769;-36
2021/12/19 14:17:38;;;;;;;58.00;38.37;;;;;;;;;;4945292;28;20979;-35
2021/12/19 14:20:04;;;;;;;62.73;41.13;;;;;;;;;;4961035;28;21218;-36
2021/12/19 14:22:31;;;;;;;63.70;40.40;;;;;;;;;;4936674;28;20431;-35
2021/12/19 14:24:59;;;;;;;60.57;40.63;;;;;;;;;;4950394;28;20428;-35
2021/12/19 14:27:28;;;;;;;60.90;39.60;;;;;;;;;;4940066;28;20491;-35
2021/12/19 14:29:57;;;;;;;58.60;39.47;;;;;;;;;;4942027;28;20470;-36
2021/12/19 14:32:37;;;;;;;63.17;40.83;;;;;;;;;;4954958;28;20655;-35
2021/12/19 14:35:08;;;;;;;64.30;42.73;;;;;;;;;;4941354;28;20456;-36
2021/12/19 14:37:34;;;;;;;63.10;41.40;;;;;;;;;;4947213;28;21125;-36
2021/12/19 14:40:14;;;;;;;63.20;42.63;;;;;;;;;;4946991;28;20476;-36
2021/12/19 14:42:45;;;;;;;63.73;41.63;;;;;;;;;;4942859;28;20465;-36
2021/12/19 14:45:17;;;;;;;64.43;41.60;;;;;;;;;;4943531;28;20434;-36
2021/12/19 14:47:48;;;;;;;66.90;42.10;;;;;;;;;;4943728;28;20953;-36
2021/12/19 14:50:14;;;;;;;62.37;41.63;;;;;;;;;;4944689;28;20557;-36
2021/12/19 14:52:55;;;;;;;65.70;43.43;;;;;;;;;;4942172;28;20437;-36
2021/12/19 14:55:24;;;;;;;67.40;43.60;;;;;;;;;;4948746;28;20509;-36
2021/12/19 14:57:51;;;;;;;67.37;43.63;;;;;;;;;;4962542;28;20426;-36
2021/12/19 15:00:17;;;;;;;71.57;44.23;;;;;;;;;;4946728;28;20525;-36
2021/12/19 15:02:43;;;;;;;70.30;44.63;;;;;;;;;;4958280;28;20523;-36
2021/12/19 15:05:11;;;;;;;69.40;43.83;;;;;;;;;;4962003;28;20434;-37
2021/12/19 15:07:42;;;;;;;69.63;45.10;;;;;;;;;;4957366;28;20489;-35
2021/12/19 15:10:09;;;;;;;74.07;46.70;;;;;;;;;;4953984;28;20940;-36
2021/12/19 15:12:35;;;;;;;72.30;45.80;;;;;;;;;;4937623;28;20431;-36
2021/12/19 15:15:01;;;;;;;70.13;45.20;;;;;;;;;;4948354;28;20843;-36
2021/12/19 15:17:27;;;;;;;70.67;45.77;;;;;;;;;;4943890;28;20424;-39
2021/12/19 15:19:53;;;;;;;74.37;46.77;;;;;;;;;;4954608;28;20422;-36
2021/12/19 15:22:19;;;;;;;76.43;47.33;;;;;;;;;;4960467;28;21286;-36
2021/12/19 15:24:46;;;;;;;76.77;47.13;;;;;;;;;;4957808;28;20453;-37
2021/12/19 15:27:12;;;;;;;71.20;45.90;;;;;;;;;;4948048;28;20605;-37
2021/12/19 15:29:38;;;;;;;82.37;48.53;;;;;;;;;;4953841;28;20821;-36
2021/12/19 15:32:04;;;;;;;76.63;47.87;;;;;;;;;;4958594;28;20850;-37
2021/12/19 15:34:30;;;;;;;80.27;50.37;;;;;;;;;;4955129;28;21060;-36
2021/12/19 15:36:57;;;;;;;87.37;51.97;;;;;;;;;;4940420;28;20429;-36
2021/12/19 15:39:23;;;;;;;87.90;52.43;;;;;;;;;;4954039;28;20435;-36
2021/12/19 15:41:51;;;;;;;93.17;56.97;;;;;;;;;;4959020;28;20442;-35
2021/12/19 15:44:17;;;;;;;91.93;57.33;;;;;;;;;;4957929;28;20442;-36
2021/12/19 15:46:43;;;;;;;95.67;58.47;;;;;;;;;;4938775;28;20492;-35
2021/12/19 15:49:09;;;;;;;88.43;56.50;;;;;;;;;;4941340;28;20709;-36
2021/12/19 15:51:35;;;;;;;98.83;58.93;;;;;;;;;;4958373;28;20461;-36
2021/12/19 15:54:01;;;;;;;93.43;56.07;;;;;;;;;;4961111;28;20475;-36
2021/12/19 15:56:28;;;;;;;93.27;57.10;;;;;;;;;;4961648;28;20437;-36
2021/12/19 15:58:54;;;;;;;97.43;57.13;;;;;;;;;;4956446;28;20445;-35
2021/12/19 16:01:20;;;;;;;99.83;57.33;;;;;;;;;;4962380;28;20780;-36
2021/12/19 16:03:48;;;;;;;92.43;56.13;;;;;;;;;;4952687;28;20427;-36
2021/12/19 16:06:14;;;;;;;96.07;59.17;;;;;;;;;;4933613;28;20438;-36
2021/12/19 16:08:40;;;;;;;105.10;62.47;;;;;;;;;;4952070;28;20421;-36
2021/12/19 16:11:07;;;;;;;103.17;60.13;;;;;;;;;;4927315;28;20454;-35
2021/12/19 16:13:33;;;;;;;101.37;61.20;;;;;;;;;;4940173;28;21333;-36
2021/12/19 16:15:59;;;;;;;99.90;60.63;;;;;;;;;;4957202;28;20430;-35
2021/12/19 16:18:25;;;;;;;114.50;66.37;;;;;;;;;;4958647;28;20599;-36
2021/12/19 16:20:53;;;;;;;122.90;68.33;;;;;;;;;;4945258;28;20455;-36
2021/12/19 16:23:19;;;;;;;114.23;70.30;;;;;;;;;;4956811;28;21376;-35
2021/12/19 16:25:45;;;;;;;129.60;73.33;;;;;;;;;;4955431;28;21058;-36
2021/12/19 16:28:12;;;;;;;123.40;71.50;;;;;;;;;;4957364;28;20421;-35
2021/12/19 16:30:38;;;;;;;132.87;73.37;;;;;;;;;;4953408;28;20849;-35
2021/12/19 16:33:04;;;;;;;131.97;75.77;;;;;;;;;;4931571;28;20524;-36
2021/12/19 16:35:32;;;;;;;132.80;74.93;;;;;;;;;;4939376;28;20429;-35